sensor_id;sensor_type;location;lat;lon;timestamp;pressure;altitude;pressure_sealevel;temperature;humidity
43298;BME280;28892;55.640;37.532;2023-06-05T00:01:55;99122.38;;;10.73;50.66
43298;BME280;28892;55.640;37.532;2023-06-05T00:04:21;99129.78;;;10.62;51.02
43298;BME280;28892;55.640;37.532;2023-06-05T00:06:49;99123.22;;;10.43;51.43
43298;BME280;28892;55.640;37.532;2023-06-05T00:09:25;99113.69;;;10.34;51.47
43298;BME280;28892;55.640;37.532;2023-06-05T00:11:51;99119.19;;;10.62;50.74
43298;BME280;28892;55.640;37.532;2023-06-05T00:14:17;99112.16;;;10.55;51.23
43298;BME280;28892;55.640;37.532;2023-06-05T00:17:17;99117.91;;;10.73;50.83
43298;BME280;28892;55.640;37.532;2023-06-05T00:19:49;99114.72;;;10.63;50.97
43298;BME280;28892;55.640;37.532;2023-06-05T00:22:18;99122.38;;;10.58;51.11
43298;BME280;28892;55.640;37.532;2023-06-05T00:24:46;99120.00;;;10.63;50.93
43298;BME280;28892;55.640;37.532;2023-06-05T00:27:18;99127.13;;;10.78;50.71
43298;BME280;28892;55.640;37.532;2023-06-05T00:29:48;99121.44;;;10.81;50.51
43298;BME280;28892;55.640;37.532;2023-06-05T00:32:17;99133.22;;;10.93;50.31
43298;BME280;28892;55.640;37.532;2023-06-05T00:34:43;99133.88;;;10.95;50.19
43298;BME280;28892;55.640;37.532;2023-06-05T00:37:12;99112.00;;;10.78;50.73
43298;BME280;28892;55.640;37.532;2023-06-05T00:39:44;99131.50;;;10.70;50.96
43298;BME280;28892;55.640;37.532;2023-06-05T00:42:10;99116.88;;;10.74;50.46
43298;BME280;28892;55.640;37.532;2023-06-05T00:44:38;99131.03;;;10.82;50.63
43298;BME280;28892;55.640;37.532;2023-06-05T00:47:04;99127.75;;;10.80;50.38
43298;BME280;28892;55.640;37.532;2023-06-05T00:49:31;99122.00;;;10.76;50.88
43298;BME280;28892;55.640;37.532;2023-06-05T00:52:00;99131.72;;;10.69;50.77
43298;BME280;28892;55.640;37.532;2023-06-05T00:54:31;99132.16;;;10.72;50.74
43298;BME280;28892;55.640;37.532;2023-06-05T00:56:58;99126.59;;;10.67;51.06
43298;BME280;28892;55.640;37.532;2023-06-05T00:59:24;99117.78;;;10.67;51.22
43298;BME280;28892;55.640;37.532;2023-06-05T01:01:50;99116.16;;;10.66;51.05
43298;BME280;28892;55.640;37.532;2023-06-05T01:04:19;99118.06;;;10.72;50.63
43298;BME280;28892;55.640;37.532;2023-06-05T01:06:52;99113.75;;;10.86;50.81
43298;BME280;28892;55.640;37.532;2023-06-05T01:09:28;99125.19;;;10.71;51.04
43298;BME280;28892;55.640;37.532;2023-06-05T01:12:08;99119.78;;;10.80;51.28
43298;BME280;28892;55.640;37.532;2023-06-05T01:14:41;99123.00;;;10.60;51.29
43298;BME280;28892;55.640;37.532;2023-06-05T01:17:12;99114.72;;;10.63;51.31
43298;BME280;28892;55.640;37.532;2023-06-05T01:19:59;99124.19;;;10.72;51.20
43298;BME280;28892;55.640;37.532;2023-06-05T01:22:39;99111.03;;;10.79;51.09
43298;BME280;28892;55.640;37.532;2023-06-05T01:25:15;99112.81;;;10.94;50.89
43298;BME280;28892;55.640;37.532;2023-06-05T01:30:30;99121.19;;;10.60;51.58
43298;BME280;28892;55.640;37.532;2023-06-05T01:33:05;99120.72;;;10.72;51.64
43298;BME280;28892;55.640;37.532;2023-06-05T01:35:33;99105.63;;;10.72;51.10
43298;BME280;28892;55.640;37.532;2023-06-05T01:38:01;99117.63;;;10.68;51.38
43298;BME280;28892;55.640;37.532;2023-06-05T01:40:32;99116.97;;;10.81;51.31
43298;BME280;28892;55.640;37.532;2023-06-05T01:43:00;99119.88;;;10.86;50.73
43298;BME280;28892;55.640;37.532;2023-06-05T01:45:30;99115.84;;;10.90;50.49
43298;BME280;28892;55.640;37.532;2023-06-05T01:47:58;99127.66;;;10.88;50.71
43298;BME280;28892;55.640;37.532;2023-06-05T01:50:27;99122.81;;;10.92;51.08
43298;BME280;28892;55.640;37.532;2023-06-05T01:52:58;99125.16;;;10.86;51.41
43298;BME280;28892;55.640;37.532;2023-06-05T01:55:27;99126.84;;;10.72;51.92
43298;BME280;28892;55.640;37.532;2023-06-05T01:57:54;99134.72;;;10.66;52.29
43298;BME280;28892;55.640;37.532;2023-06-05T02:00:25;99135.66;;;10.58;52.07
43298;BME280;28892;55.640;37.532;2023-06-05T02:02:53;99127.50;;;10.59;52.32
43298;BME280;28892;55.640;37.532;2023-06-05T02:05:19;99131.09;;;10.52;52.74
43298;BME280;28892;55.640;37.532;2023-06-05T02:07:51;99127.13;;;10.62;52.52
43298;BME280;28892;55.640;37.532;2023-06-05T02:15:31;99147.69;;;10.90;52.59
43298;BME280;28892;55.640;37.532;2023-06-05T02:18:02;99140.03;;;10.66;52.63
43298;BME280;28892;55.640;37.532;2023-06-05T02:20:57;99134.34;;;10.39;53.75
43298;BME280;28892;55.640;37.532;2023-06-05T02:24:15;99126.84;;;10.72;52.51
43298;BME280;28892;55.640;37.532;2023-06-05T02:27:51;99131.63;;;10.62;53.60
43298;BME280;28892;55.640;37.532;2023-06-05T02:31:11;99139.13;;;10.58;53.63
43298;BME280;28892;55.640;37.532;2023-06-05T02:34:05;99141.78;;;10.73;52.95
43298;BME280;28892;55.640;37.532;2023-06-05T02:36:35;99146.16;;;10.51;53.95
43298;BME280;28892;55.640;37.532;2023-06-05T02:39:04;99151.09;;;10.54;53.99
43298;BME280;28892;55.640;37.532;2023-06-05T02:41:35;99143.06;;;10.47;54.11
43298;BME280;28892;55.640;37.532;2023-06-05T02:45:35;99156.84;;;10.88;53.17
43298;BME280;28892;55.640;37.532;2023-06-05T02:48:19;99151.81;;;10.78;53.03
43298;BME280;28892;55.640;37.532;2023-06-05T02:50:45;99162.69;;;10.83;53.33
43298;BME280;28892;55.640;37.532;2023-06-05T02:53:54;99164.25;;;10.78;53.76
43298;BME280;28892;55.640;37.532;2023-06-05T02:56:23;99152.72;;;10.70;54.28
43298;BME280;28892;55.640;37.532;2023-06-05T02:58:53;99154.84;;;10.60;54.70
43298;BME280;28892;55.640;37.532;2023-06-05T03:01:20;99149.53;;;10.30;56.36
43298;BME280;28892;55.640;37.532;2023-06-05T03:03:49;99162.41;;;10.33;56.67
43298;BME280;28892;55.640;37.532;2023-06-05T03:06:23;99168.31;;;10.43;56.01
43298;BME280;28892;55.640;37.532;2023-06-05T03:09:47;99175.59;;;10.86;55.77
43298;BME280;28892;55.640;37.532;2023-06-05T03:13:16;99163.00;;;10.73;55.36
43298;BME280;28892;55.640;37.532;2023-06-05T03:16:07;99169.66;;;10.84;55.85
43298;BME280;28892;55.640;37.532;2023-06-05T03:19:58;99152.72;;;10.85;55.46
43298;BME280;28892;55.640;37.532;2023-06-05T03:22:37;99148.13;;;10.94;55.68
43298;BME280;28892;55.640;37.532;2023-06-05T03:25:11;99150.66;;;11.02;54.79
43298;BME280;28892;55.640;37.532;2023-06-05T03:28:38;99138.94;;;11.12;54.89
43298;BME280;28892;55.640;37.532;2023-06-05T03:31:07;99147.28;;;11.09;55.10
43298;BME280;28892;55.640;37.532;2023-06-05T03:33:51;99142.28;;;11.21;55.42
43298;BME280;28892;55.640;37.532;2023-06-05T03:36:18;99148.91;;;11.10;55.43
43298;BME280;28892;55.640;37.532;2023-06-05T03:38:50;99142.91;;;11.01;55.97
43298;BME280;28892;55.640;37.532;2023-06-05T03:41:30;99143.81;;;10.93;56.45
43298;BME280;28892;55.640;37.532;2023-06-05T03:43:56;99147.38;;;11.00;56.61
43298;BME280;28892;55.640;37.532;2023-06-05T03:46:27;99148.22;;;11.01;56.89
43298;BME280;28892;55.640;37.532;2023-06-05T03:49:02;99137.53;;;11.16;56.48
43298;BME280;28892;55.640;37.532;2023-06-05T03:51:43;99147.25;;;11.24;56.15
43298;BME280;28892;55.640;37.532;2023-06-05T03:54:11;99137.38;;;11.17;56.85
43298;BME280;28892;55.640;37.532;2023-06-05T03:56:38;99136.56;;;11.17;56.63
43298;BME280;28892;55.640;37.532;2023-06-05T03:59:12;99142.09;;;11.22;56.97
43298;BME280;28892;55.640;37.532;2023-06-05T04:01:56;99139.06;;;11.25;57.75
43298;BME280;28892;55.640;37.532;2023-06-05T04:04:26;99138.56;;;11.37;57.01
43298;BME280;28892;55.640;37.532;2023-06-05T04:06:54;99147.50;;;11.51;56.91
43298;BME280;28892;55.640;37.532;2023-06-05T04:09:25;99139.22;;;11.60;56.57
43298;BME280;28892;55.640;37.532;2023-06-05T04:11:51;99140.91;;;11.68;56.00
43298;BME280;28892;55.640;37.532;2023-06-05T04:14:18;99140.78;;;11.77;56.63
43298;BME280;28892;55.640;37.532;2023-06-05T04:16:50;99150.69;;;11.90;55.91
43298;BME280;28892;55.640;37.532;2023-06-05T04:19:22;99149.03;;;11.88;56.21
43298;BME280;28892;55.640;37.532;2023-06-05T04:21:59;99139.25;;;11.89;55.92
43298;BME280;28892;55.640;37.532;2023-06-05T04:24:25;99140.84;;;11.83;55.51
43298;BME280;28892;55.640;37.532;2023-06-05T04:27:00;99147.47;;;11.94;56.09
43298;BME280;28892;55.640;37.532;2023-06-05T04:33:07;99145.59;;;11.88;55.29
43298;BME280;28892;55.640;37.532;2023-06-05T04:48:43;99159.00;;;11.58;57.50
43298;BME280;28892;55.640;37.532;2023-06-05T04:51:17;99141.03;;;11.60;56.95
43298;BME280;28892;55.640;37.532;2023-06-05T04:53:53;99146.34;;;11.60;57.28
43298;BME280;28892;55.640;37.532;2023-06-05T04:56:22;99151.53;;;11.68;57.04
43298;BME280;28892;55.640;37.532;2023-06-05T04:58:57;99160.75;;;11.29;59.45
43298;BME280;28892;55.640;37.532;2023-06-05T05:01:25;99153.13;;;11.41;58.99
43298;BME280;28892;55.640;37.532;2023-06-05T05:03:56;99149.97;;;11.52;59.12
43298;BME280;28892;55.640;37.532;2023-06-05T05:06:22;99157.56;;;11.55;58.72
43298;BME280;28892;55.640;37.532;2023-06-05T05:08:49;99142.81;;;11.53;59.36
43298;BME280;28892;55.640;37.532;2023-06-05T05:11:17;99153.00;;;11.49;59.87
43298;BME280;28892;55.640;37.532;2023-06-05T05:13:44;99137.94;;;11.78;58.67
43298;BME280;28892;55.640;37.532;2023-06-05T05:16:10;99145.53;;;11.81;59.60
43298;BME280;28892;55.640;37.532;2023-06-05T05:18:43;99146.78;;;12.07;58.85
43298;BME280;28892;55.640;37.532;2023-06-05T05:21:10;99149.16;;;12.02;58.66
43298;BME280;28892;55.640;37.532;2023-06-05T05:23:36;99153.06;;;12.28;58.19
43298;BME280;28892;55.640;37.532;2023-06-05T05:26:09;99151.56;;;12.19;58.80
43298;BME280;28892;55.640;37.532;2023-06-05T05:29:09;99162.47;;;12.31;58.94
43298;BME280;28892;55.640;37.532;2023-06-05T05:32:01;99154.84;;;12.21;59.28
43298;BME280;28892;55.640;37.532;2023-06-05T05:34:27;99147.84;;;12.13;59.54
43298;BME280;28892;55.640;37.532;2023-06-05T05:36:53;99164.28;;;12.23;60.04
43298;BME280;28892;55.640;37.532;2023-06-05T05:39:19;99154.09;;;12.34;60.03
43298;BME280;28892;55.640;37.532;2023-06-05T05:41:48;99160.56;;;12.53;59.30
43298;BME280;28892;55.640;37.532;2023-06-05T05:44:17;99166.59;;;12.68;58.64
43298;BME280;28892;55.640;37.532;2023-06-05T05:46:46;99157.91;;;12.53;58.55
43298;BME280;28892;55.640;37.532;2023-06-05T05:49:15;99158.00;;;12.38;59.24
43298;BME280;28892;55.640;37.532;2023-06-05T05:51:41;99167.72;;;12.24;59.55
43298;BME280;28892;55.640;37.532;2023-06-05T05:54:07;99153.09;;;12.35;58.94
43298;BME280;28892;55.640;37.532;2023-06-05T05:56:33;99173.25;;;12.51;59.01
43298;BME280;28892;55.640;37.532;2023-06-05T05:59:13;99161.09;;;12.41;59.83
43298;BME280;28892;55.640;37.532;2023-06-05T06:01:59;99169.66;;;12.37;59.84
43298;BME280;28892;55.640;37.532;2023-06-05T06:04:29;99159.66;;;12.39;59.38
43298;BME280;28892;55.640;37.532;2023-06-05T06:07:03;99161.75;;;12.15;61.13
43298;BME280;28892;55.640;37.532;2023-06-05T06:09:36;99163.69;;;12.28;60.65
43298;BME280;28892;55.640;37.532;2023-06-05T06:12:02;99184.75;;;12.29;61.01
43298;BME280;28892;55.640;37.532;2023-06-05T06:14:34;99172.66;;;12.20;61.68
43298;BME280;28892;55.640;37.532;2023-06-05T06:17:01;99169.97;;;12.20;61.63
43298;BME280;28892;55.640;37.532;2023-06-05T06:19:28;99177.59;;;12.30;62.14
43298;BME280;28892;55.640;37.532;2023-06-05T06:21:55;99177.31;;;12.18;62.85
43298;BME280;28892;55.640;37.532;2023-06-05T06:24:31;99175.59;;;12.39;62.94
43298;BME280;28892;55.640;37.532;2023-06-05T06:27:07;99164.97;;;12.39;62.17
43298;BME280;28892;55.640;37.532;2023-06-05T06:29:47;99167.38;;;12.62;61.81
43298;BME280;28892;55.640;37.532;2023-06-05T06:32:13;99166.31;;;12.56;61.03
43298;BME280;28892;55.640;37.532;2023-06-05T06:34:42;99159.81;;;12.31;62.10
43298;BME280;28892;55.640;37.532;2023-06-05T06:37:13;99171.13;;;12.39;61.90
43298;BME280;28892;55.640;37.532;2023-06-05T06:39:43;99161.66;;;12.30;62.09
43298;BME280;28892;55.640;37.532;2023-06-05T06:42:27;99172.03;;;12.53;62.35
43298;BME280;28892;55.640;37.532;2023-06-05T06:45:13;99163.66;;;13.05;60.90
43298;BME280;28892;55.640;37.532;2023-06-05T06:47:42;99160.94;;;13.67;59.42
43298;BME280;28892;55.640;37.532;2023-06-05T06:50:23;99144.50;;;14.24;57.21
43298;BME280;28892;55.640;37.532;2023-06-05T06:52:54;99156.25;;;14.03;58.75
43298;BME280;28892;55.640;37.532;2023-06-05T06:55:27;99148.13;;;14.57;56.65
43298;BME280;28892;55.640;37.532;2023-06-05T06:57:56;99148.72;;;14.66;55.66
43298;BME280;28892;55.640;37.532;2023-06-05T07:13:32;99125.16;;;15.98;52.23
43298;BME280;28892;55.640;37.532;2023-06-05T07:15:58;99129.22;;;15.50;51.70
43298;BME280;28892;55.640;37.532;2023-06-05T07:18:33;99136.69;;;15.41;52.19
43298;BME280;28892;55.640;37.532;2023-06-05T07:21:02;99134.47;;;15.31;52.17
43298;BME280;28892;55.640;37.532;2023-06-05T07:23:28;99136.00;;;15.53;51.37
43298;BME280;28892;55.640;37.532;2023-06-05T07:26:00;99139.34;;;15.41;51.51
43298;BME280;28892;55.640;37.532;2023-06-05T07:28:40;99143.84;;;15.73;51.39
43298;BME280;28892;55.640;37.532;2023-06-05T07:31:07;99142.16;;;15.78;51.67
43298;BME280;28892;55.640;37.532;2023-06-05T07:34:18;99133.25;;;16.54;49.56
43298;BME280;28892;55.640;37.532;2023-06-05T07:36:46;99137.72;;;16.60;49.20
43298;BME280;28892;55.640;37.532;2023-06-05T07:39:38;99139.63;;;16.72;49.81
43298;BME280;28892;55.640;37.532;2023-06-05T07:42:52;99133.78;;;16.44;48.75
43298;BME280;28892;55.640;37.532;2023-06-05T07:45:18;99138.38;;;16.56;48.24
43298;BME280;28892;55.640;37.532;2023-06-05T08:01:23;99138.59;;;17.22;47.33
43298;BME280;28892;55.640;37.532;2023-06-05T08:07:29;99130.94;;;16.58;48.20
43298;BME280;28892;55.640;37.532;2023-06-05T08:10:12;99124.75;;;16.76;46.47
43298;BME280;28892;55.640;37.532;2023-06-05T08:13:01;99124.53;;;16.40;47.12
43298;BME280;28892;55.640;37.532;2023-06-05T08:15:30;99125.84;;;16.31;47.66
43298;BME280;28892;55.640;37.532;2023-06-05T08:17:59;99122.94;;;16.14;48.05
43298;BME280;28892;55.640;37.532;2023-06-05T08:20:27;99126.34;;;16.02;48.22
43298;BME280;28892;55.640;37.532;2023-06-05T08:23:25;99118.59;;;15.69;48.76
43298;BME280;28892;55.640;37.532;2023-06-05T08:25:55;99122.84;;;15.76;48.82
43298;BME280;28892;55.640;37.532;2023-06-05T08:28:30;99125.16;;;15.98;48.51
43298;BME280;28892;55.640;37.532;2023-06-05T08:31:05;99122.09;;;16.39;47.02
43298;BME280;28892;55.640;37.532;2023-06-05T08:33:35;99124.53;;;16.59;46.37
43298;BME280;28892;55.640;37.532;2023-06-05T08:36:01;99111.94;;;16.78;46.15
43298;BME280;28892;55.640;37.532;2023-06-05T08:38:32;99134.63;;;16.01;47.55
43298;BME280;28892;55.640;37.532;2023-06-05T08:41:03;99120.91;;;15.90;48.22
43298;BME280;28892;55.640;37.532;2023-06-05T08:43:37;99121.25;;;15.43;49.47
43298;BME280;28892;55.640;37.532;2023-06-05T08:46:05;99121.38;;;15.55;49.08
43298;BME280;28892;55.640;37.532;2023-06-05T08:48:32;99113.34;;;15.81;49.05
43298;BME280;28892;55.640;37.532;2023-06-05T08:51:00;99124.03;;;16.50;47.45
43298;BME280;28892;55.640;37.532;2023-06-05T08:53:46;99113.06;;;16.89;46.75
43298;BME280;28892;55.640;37.532;2023-06-05T08:56:13;99107.53;;;17.45;44.93
43298;BME280;28892;55.640;37.532;2023-06-05T08:58:40;99118.75;;;17.54;44.55
43298;BME280;28892;55.640;37.532;2023-06-05T09:01:09;99104.34;;;17.79;44.95
43298;BME280;28892;55.640;37.532;2023-06-05T09:03:35;99108.56;;;18.10;43.26
43298;BME280;28892;55.640;37.532;2023-06-05T09:06:01;99101.44;;;18.16;43.04
43298;BME280;28892;55.640;37.532;2023-06-05T09:08:59;99089.78;;;18.10;42.40
43298;BME280;28892;55.640;37.532;2023-06-05T09:11:55;99086.03;;;18.64;41.70
43298;BME280;28892;55.640;37.532;2023-06-05T09:14:53;99075.72;;;18.73;41.06
43298;BME280;28892;55.640;37.532;2023-06-05T09:17:21;99092.91;;;18.19;40.94
43298;BME280;28892;55.640;37.532;2023-06-05T09:19:47;99084.38;;;17.98;42.90
43298;BME280;28892;55.640;37.532;2023-06-05T09:22:13;99069.34;;;18.62;41.38
43298;BME280;28892;55.640;37.532;2023-06-05T09:24:42;99071.25;;;19.37;39.65
43298;BME280;28892;55.640;37.532;2023-06-05T09:27:24;99052.41;;;19.71;39.89
43298;BME280;28892;55.640;37.532;2023-06-05T09:30:02;99075.25;;;19.05;38.98
43298;BME280;28892;55.640;37.532;2023-06-05T09:32:47;99057.38;;;19.28;39.00
43298;BME280;28892;55.640;37.532;2023-06-05T09:35:22;99059.88;;;19.86;37.79
43298;BME280;28892;55.640;37.532;2023-06-05T09:37:48;99069.28;;;19.15;39.26
43298;BME280;28892;55.640;37.532;2023-06-05T09:40:14;99057.25;;;18.48;40.69
43298;BME280;28892;55.640;37.532;2023-06-05T09:42:40;99056.94;;;19.02;40.31
43298;BME280;28892;55.640;37.532;2023-06-05T09:45:07;99061.34;;;18.79;40.27
43298;BME280;28892;55.640;37.532;2023-06-05T09:47:33;99058.28;;;18.59;39.75
43298;BME280;28892;55.640;37.532;2023-06-05T09:49:59;99054.59;;;18.36;40.35
43298;BME280;28892;55.640;37.532;2023-06-05T09:52:25;99062.94;;;17.86;41.21
43298;BME280;28892;55.640;37.532;2023-06-05T09:54:55;99060.25;;;17.86;41.42
43298;BME280;28892;55.640;37.532;2023-06-05T09:57:27;99062.22;;;17.91;41.28
43298;BME280;28892;55.640;37.532;2023-06-05T09:59:54;99082.25;;;17.41;42.63
43298;BME280;28892;55.640;37.532;2023-06-05T10:02:32;99082.00;;;17.42;43.64
43298;BME280;28892;55.640;37.532;2023-06-05T10:05:03;99079.31;;;17.30;44.67
43298;BME280;28892;55.640;37.532;2023-06-05T10:07:33;99075.41;;;16.84;45.59
43298;BME280;28892;55.640;37.532;2023-06-05T10:10:02;99066.72;;;17.19;45.44
43298;BME280;28892;55.640;37.532;2023-06-05T10:12:31;99061.63;;;17.53;44.77
43298;BME280;28892;55.640;37.532;2023-06-05T10:14:57;99070.53;;;17.78;44.77
43298;BME280;28892;55.640;37.532;2023-06-05T10:17:24;99071.44;;;17.83;44.58
43298;BME280;28892;55.640;37.532;2023-06-05T10:19:50;99073.53;;;17.45;44.68
43298;BME280;28892;55.640;37.532;2023-06-05T10:22:45;99079.28;;;17.18;45.28
43298;BME280;28892;55.640;37.532;2023-06-05T10:25:15;99071.19;;;16.76;45.79
43298;BME280;28892;55.640;37.532;2023-06-05T10:31:11;99074.75;;;16.20;47.03
43298;BME280;28892;55.640;37.532;2023-06-05T10:33:48;99077.94;;;16.79;46.58
43298;BME280;28892;55.640;37.532;2023-06-05T10:38:46;99056.03;;;17.55;45.81
43298;BME280;28892;55.640;37.532;2023-06-05T10:41:54;99047.19;;;18.14;43.78
43298;BME280;28892;55.640;37.532;2023-06-05T10:44:54;99055.22;;;18.67;43.34
43298;BME280;28892;55.640;37.532;2023-06-05T10:47:51;99045.34;;;18.43;42.41
43298;BME280;28892;55.640;37.532;2023-06-05T10:50:21;99035.06;;;18.98;41.49
43298;BME280;28892;55.640;37.532;2023-06-05T10:52:51;99032.44;;;19.16;40.11
43298;BME280;28892;55.640;37.532;2023-06-05T10:55:23;99038.97;;;19.03;40.34
43298;BME280;28892;55.640;37.532;2023-06-05T11:01:26;99028.13;;;20.05;37.86
43298;BME280;28892;55.640;37.532;2023-06-05T11:03:57;99026.47;;;19.65;38.54
43298;BME280;28892;55.640;37.532;2023-06-05T11:06:27;99036.09;;;19.61;39.39
43298;BME280;28892;55.640;37.532;2023-06-05T11:09:13;99050.47;;;19.15;39.51
43298;BME280;28892;55.640;37.532;2023-06-05T11:12:02;99051.56;;;19.02;39.41
43298;BME280;28892;55.640;37.532;2023-06-05T11:14:49;99078.19;;;18.22;40.81
43298;BME280;28892;55.640;37.532;2023-06-05T11:21:12;99087.66;;;18.24;44.87
43298;BME280;28892;55.640;37.532;2023-06-05T11:24:14;99093.72;;;17.72;46.36
43298;BME280;28892;55.640;37.532;2023-06-05T11:30:21;99071.66;;;16.85;50.38
43298;BME280;28892;55.640;37.532;2023-06-05T11:37:39;99058.84;;;16.75;51.32
43298;BME280;28892;55.640;37.532;2023-06-05T11:40:22;99050.63;;;16.58;52.30
43298;BME280;28892;55.640;37.532;2023-06-05T11:43:15;99044.47;;;16.39;54.38
43298;BME280;28892;55.640;37.532;2023-06-05T11:45:58;99052.47;;;16.57;52.61
43298;BME280;28892;55.640;37.532;2023-06-05T11:48:29;99043.25;;;16.53;54.16
43298;BME280;28892;55.640;37.532;2023-06-05T11:53:27;99050.03;;;16.37;56.11
43298;BME280;28892;55.640;37.532;2023-06-05T11:55:57;99069.06;;;16.29;55.27
43298;BME280;28892;55.640;37.532;2023-06-05T11:58:40;99072.28;;;16.38;56.12
43298;BME280;28892;55.640;37.532;2023-06-05T12:01:15;99095.47;;;16.44;57.10
43298;BME280;28892;55.640;37.532;2023-06-05T12:04:11;99107.00;;;16.44;53.85
43298;BME280;28892;55.640;37.532;2023-06-05T12:07:31;99126.91;;;16.48;53.17
43298;BME280;28892;55.640;37.532;2023-06-05T12:10:33;99123.13;;;16.19;53.39
43298;BME280;28892;55.640;37.532;2023-06-05T12:13:21;99121.09;;;15.89;54.69
43298;BME280;28892;55.640;37.532;2023-06-05T12:16:41;99123.59;;;16.09;54.02
43298;BME280;28892;55.640;37.532;2023-06-05T12:19:27;99116.59;;;16.15;54.49
43298;BME280;28892;55.640;37.532;2023-06-05T12:25:44;99093.75;;;16.50;53.68
43298;BME280;28892;55.640;37.532;2023-06-05T12:28:23;99096.44;;;16.50;55.53
43298;BME280;28892;55.640;37.532;2023-06-05T12:30:49;99098.88;;;16.51;54.63
43298;BME280;28892;55.640;37.532;2023-06-05T12:33:15;99088.38;;;16.31;55.31
43298;BME280;28892;55.640;37.532;2023-06-05T12:35:41;99093.66;;;16.56;54.67
43298;BME280;28892;55.640;37.532;2023-06-05T12:38:09;99091.06;;;16.68;54.17
43298;BME280;28892;55.640;37.532;2023-06-05T12:40:36;99089.50;;;16.23;54.88
43298;BME280;28892;55.640;37.532;2023-06-05T12:43:03;99081.13;;;16.01;55.15
43298;BME280;28892;55.640;37.532;2023-06-05T12:45:37;99092.66;;;16.39;52.94
43298;BME280;28892;55.640;37.532;2023-06-05T12:48:08;99079.03;;;16.22;54.51
43298;BME280;28892;55.640;37.532;2023-06-05T12:50:37;99075.97;;;15.99;54.00
43298;BME280;28892;55.640;37.532;2023-06-05T12:53:06;99081.25;;;16.06;53.58
43298;BME280;28892;55.640;37.532;2023-06-05T12:55:43;99078.81;;;16.23;53.27
43298;BME280;28892;55.640;37.532;2023-06-05T12:58:31;99075.22;;;15.92;53.10
43298;BME280;28892;55.640;37.532;2023-06-05T13:00:57;99068.84;;;15.93;53.77
43298;BME280;28892;55.640;37.532;2023-06-05T13:03:36;99075.75;;;16.38;52.82
43298;BME280;28892;55.640;37.532;2023-06-05T13:06:04;99069.66;;;16.31;53.15
43298;BME280;28892;55.640;37.532;2023-06-05T13:08:38;99074.38;;;16.17;53.97
43298;BME280;28892;55.640;37.532;2023-06-05T13:14:51;99085.44;;;16.20;53.85
43298;BME280;28892;55.640;37.532;2023-06-05T13:17:23;99072.84;;;16.02;54.77
43298;BME280;28892;55.640;37.532;2023-06-05T13:29:03;99078.03;;;16.72;52.08
43298;BME280;28892;55.640;37.532;2023-06-05T13:31:29;99063.22;;;16.39;53.12
43298;BME280;28892;55.640;37.532;2023-06-05T13:33:59;99058.59;;;16.27;52.51
43298;BME280;28892;55.640;37.532;2023-06-05T13:36:49;99062.97;;;16.40;52.30
43298;BME280;28892;55.640;37.532;2023-06-05T13:39:15;99056.56;;;16.41;52.10
43298;BME280;28892;55.640;37.532;2023-06-05T13:41:50;99057.22;;;16.55;52.00
43298;BME280;28892;55.640;37.532;2023-06-05T13:44:39;99052.88;;;16.42;53.52
43298;BME280;28892;55.640;37.532;2023-06-05T13:47:07;99039.53;;;16.54;52.22
43298;BME280;28892;55.640;37.532;2023-06-05T13:56:17;99044.50;;;16.51;52.50
43298;BME280;28892;55.640;37.532;2023-06-05T13:59:01;99036.75;;;16.61;51.79
43298;BME280;28892;55.640;37.532;2023-06-05T14:01:28;99037.50;;;16.68;51.28
43298;BME280;28892;55.640;37.532;2023-06-05T14:04:15;99035.72;;;16.62;50.89
43298;BME280;28892;55.640;37.532;2023-06-05T14:06:54;99039.41;;;16.80;49.38
43298;BME280;28892;55.640;37.532;2023-06-05T14:09:23;99034.38;;;16.71;49.27
43298;BME280;28892;55.640;37.532;2023-06-05T14:11:49;99030.63;;;16.42;50.19
43298;BME280;28892;55.640;37.532;2023-06-05T14:14:21;99038.75;;;16.66;48.40
43298;BME280;28892;55.640;37.532;2023-06-05T14:16:50;99022.78;;;16.89;45.89
43298;BME280;28892;55.640;37.532;2023-06-05T14:19:33;99022.97;;;16.76;46.06
43298;BME280;28892;55.640;37.532;2023-06-05T14:22:12;99011.00;;;16.79;46.58
43298;BME280;28892;55.640;37.532;2023-06-05T14:24:46;99013.22;;;16.82;46.07
43298;BME280;28892;55.640;37.532;2023-06-05T14:27:15;99018.91;;;17.04;45.76
43298;BME280;28892;55.640;37.532;2023-06-05T14:29:45;99010.66;;;17.17;44.71
43298;BME280;28892;55.640;37.532;2023-06-05T14:32:11;99013.81;;;17.14;44.74
43298;BME280;28892;55.640;37.532;2023-06-05T14:35:09;99012.06;;;17.20;44.53
43298;BME280;28892;55.640;37.532;2023-06-05T14:37:37;99010.91;;;17.28;44.23
43298;BME280;28892;55.640;37.532;2023-06-05T14:40:05;99002.50;;;17.12;44.96
43298;BME280;28892;55.640;37.532;2023-06-05T14:42:31;99009.13;;;17.22;44.34
43298;BME280;28892;55.640;37.532;2023-06-05T14:45:18;99010.69;;;17.29;44.40
43298;BME280;28892;55.640;37.532;2023-06-05T14:48:42;99005.78;;;17.38;44.23
43298;BME280;28892;55.640;37.532;2023-06-05T14:51:28;99007.44;;;17.51;44.42
43298;BME280;28892;55.640;37.532;2023-06-05T14:54:09;98999.16;;;17.41;44.14
43298;BME280;28892;55.640;37.532;2023-06-05T14:56:35;99007.44;;;17.51;43.94
43298;BME280;28892;55.640;37.532;2023-06-05T14:59:00;99003.56;;;17.47;44.20
43298;BME280;28892;55.640;37.532;2023-06-05T15:01:26;99012.31;;;17.54;44.03
43298;BME280;28892;55.640;37.532;2023-06-05T15:04:04;99003.19;;;17.79;44.15
43298;BME280;28892;55.640;37.532;2023-06-05T15:06:35;99010.56;;;17.72;43.00
43298;BME280;28892;55.640;37.532;2023-06-05T15:09:10;99014.41;;;17.52;43.43
43298;BME280;28892;55.640;37.532;2023-06-05T15:14:47;99006.47;;;17.34;43.83
43298;BME280;28892;55.640;37.532;2023-06-05T15:17:16;99007.13;;;17.05;44.57
43298;BME280;28892;55.640;37.532;2023-06-05T15:19:46;99004.53;;;16.98;44.86